createdAt,value
2022-08-17T00:00:43.125Z,21.86
2022-08-17T00:05:41.591Z,21.67
2022-08-17T00:10:46.025Z,21.69
2022-08-17T00:15:47.061Z,21.65
2022-08-17T00:20:47.686Z,21.52
2022-08-17T00:25:50.089Z,21.58
2022-08-17T00:30:53.504Z,21.56
2022-08-17T00:35:55.178Z,21.46
2022-08-17T00:40:59.681Z,21.48
2022-08-17T00:46:05.477Z,21.46
2022-08-17T00:51:13.184Z,21.38
2022-08-17T00:56:19.473Z,21.34
2022-08-17T01:01:21.364Z,21.11
2022-08-17T01:06:24.465Z,21.10
2022-08-17T01:11:26.805Z,20.85
2022-08-17T01:16:29.901Z,20.73
2022-08-17T01:21:37.217Z,20.65
2022-08-17T01:26:40.274Z,20.64
2022-08-17T01:31:46.467Z,20.65
2022-08-17T01:36:50.388Z,20.39
2022-08-17T01:41:57.220Z,20.26
2022-08-17T01:46:57.911Z,20.15
2022-08-17T01:52:07.217Z,20.11
2022-08-17T01:57:09.742Z,19.98
2022-08-17T02:02:10.362Z,19.89
2022-08-17T02:07:10.970Z,19.93
2022-08-17T02:12:37.733Z,19.92
2022-08-17T02:17:33.745Z,19.77
2022-08-17T02:22:35.755Z,19.73
2022-08-17T02:27:39.348Z,19.64
2022-08-17T02:32:40.397Z,19.66
2022-08-17T02:37:42.975Z,19.50
2022-08-17T02:42:50.229Z,19.42
2022-08-17T02:47:51.704Z,19.32
2022-08-17T02:53:02.084Z,19.26
2022-08-17T02:58:04.871Z,19.14
2022-08-17T03:03:07.071Z,19.11
2022-08-17T03:08:13.035Z,19.10
2022-08-17T03:13:15.919Z,18.97
2022-08-17T03:18:24.448Z,18.88
2022-08-17T03:23:29.425Z,19.01
2022-08-17T03:28:31.963Z,19.03
2022-08-17T03:33:32.941Z,19.01
2022-08-17T03:38:39.004Z,18.98
2022-08-17T03:43:41.437Z,19.22
2022-08-17T03:48:59.547Z,19.29
2022-08-17T03:54:18.535Z,19.23
2022-08-17T03:59:22.975Z,19.15
2022-08-17T04:04:27.744Z,19.06
2022-08-17T04:09:28.889Z,19.08
2022-08-17T04:14:36.082Z,19.05
2022-08-17T04:19:53.329Z,18.97
2022-08-17T04:24:53.957Z,18.94
2022-08-17T04:30:01.156Z,18.87
2022-08-17T04:35:01.808Z,18.85
2022-08-17T04:40:16.431Z,18.98
2022-08-17T04:45:18.389Z,19.11
2022-08-17T04:50:19.032Z,19.19
2022-08-17T04:55:19.926Z,19.14
2022-08-17T05:00:22.267Z,19.21
2022-08-17T05:05:26.383Z,19.18
2022-08-17T05:10:29.166Z,19.11
2022-08-17T05:15:32.981Z,19.20
2022-08-17T05:20:35.161Z,19.24
2022-08-17T05:25:39.482Z,19.29
2022-08-17T05:30:43.218Z,19.36
2022-08-17T05:35:46.977Z,19.54
2022-08-17T05:40:48.431Z,19.61
2022-08-17T05:46:01.244Z,19.79
2022-08-17T05:51:14.226Z,19.92
2022-08-17T05:56:29.867Z,20.06
2022-08-17T06:01:42.349Z,20.24
2022-08-17T06:06:51.637Z,20.40
2022-08-17T06:11:58.736Z,20.50
2022-08-17T06:17:05.450Z,20.70
2022-08-17T06:22:09.051Z,20.92
2022-08-17T06:27:14.731Z,21.09
2022-08-17T06:32:17.256Z,21.17
2022-08-17T06:37:59.698Z,21.37
2022-08-17T06:43:14.384Z,21.57
2022-08-17T06:48:25.400Z,21.80
2022-08-17T06:53:29.720Z,22.02
2022-08-17T06:58:33.253Z,22.17
2022-08-17T07:03:40.745Z,22.34
2022-08-17T07:08:55.981Z,22.51
2022-08-17T07:14:06.572Z,22.69
2022-08-17T07:19:10.850Z,22.85
2022-08-17T07:24:30.545Z,23.14
2022-08-17T07:29:33.124Z,23.32
2022-08-17T07:35:08.491Z,23.51
2022-08-17T07:40:18.980Z,23.63
2022-08-17T07:45:33.695Z,23.76
2022-08-17T07:50:35.696Z,23.96
2022-08-17T07:55:41.468Z,23.89
2022-08-17T08:00:43.155Z,24.14
2022-08-17T08:05:53.851Z,24.26
2022-08-17T08:11:10.434Z,24.44
2022-08-17T08:16:27.563Z,24.66
2022-08-17T08:21:43.804Z,24.89
2022-08-17T08:26:51.248Z,25.14
2022-08-17T08:32:03.604Z,25.37
2022-08-17T08:37:25.036Z,25.60
2022-08-17T08:42:43.224Z,25.73
2022-08-17T08:48:05.177Z,25.97
2022-08-17T08:53:23.499Z,26.18
2022-08-17T08:58:41.963Z,26.48
2022-08-17T09:04:11.797Z,26.76
2022-08-17T09:09:27.873Z,26.99
2022-08-17T09:14:45.382Z,27.17
2022-08-17T09:19:52.317Z,27.35
2022-08-17T09:24:58.433Z,27.54
2022-08-17T09:30:03.343Z,27.59
2022-08-17T09:35:11.038Z,27.68
2022-08-17T09:40:19.517Z,27.92
2022-08-17T09:45:32.937Z,28.15
2022-08-17T09:51:04.285Z,28.42
2022-08-17T09:56:13.676Z,28.77
2022-08-17T10:01:25.216Z,28.83
2022-08-17T10:06:30.824Z,29.15
2022-08-17T10:11:54.611Z,29.39
2022-08-17T10:17:06.014Z,29.51
2022-08-17T10:22:35.195Z,29.85
2022-08-17T10:27:48.659Z,30.00
2022-08-17T10:32:55.002Z,30.28
2022-08-17T10:38:40.840Z,30.30
2022-08-17T10:44:02.182Z,30.34
2022-08-17T10:49:25.309Z,30.44
2022-08-17T10:54:57.946Z,30.44
2022-08-17T11:00:01.838Z,30.47
2022-08-17T11:05:19.080Z,30.70
2022-08-17T11:10:51.844Z,30.77
2022-08-17T11:16:08.950Z,30.74
2022-08-17T11:21:26.470Z,30.72
2022-08-17T11:26:30.396Z,30.81
2022-08-17T11:31:39.322Z,31.08
2022-08-17T11:36:57.701Z,31.19
2022-08-17T11:42:05.865Z,31.37
2022-08-17T11:47:33.581Z,31.38
2022-08-17T11:52:40.990Z,31.15
2022-08-17T11:58:03.562Z,31.42
2022-08-17T12:03:24.874Z,31.60
2022-08-17T12:08:27.583Z,31.82
2022-08-17T12:13:34.609Z,32.18
2022-08-17T12:18:50.571Z,31.95
2022-08-17T12:23:58.215Z,31.66
2022-08-17T12:29:01.832Z,31.66
2022-08-17T12:34:05.560Z,31.53
2022-08-17T12:39:13.867Z,31.32
2022-08-17T12:44:18.183Z,31.10
2022-08-17T12:49:29.909Z,31.11
2022-08-17T12:54:39.569Z,31.68
2022-08-17T12:59:44.090Z,32.41
2022-08-17T13:04:47.465Z,32.66
2022-08-17T13:09:52.341Z,33.11
2022-08-17T13:14:53.021Z,33.29
2022-08-17T13:19:55.077Z,32.98
2022-08-17T13:24:58.212Z,32.86
2022-08-17T13:30:02.254Z,32.93
2022-08-17T13:35:44.272Z,33.36
2022-08-17T13:40:54.120Z,33.93
2022-08-17T13:46:07.800Z,33.68
2022-08-17T13:51:23.050Z,34.02
2022-08-17T13:56:49.995Z,33.93
2022-08-17T14:01:53.757Z,33.67
2022-08-17T14:06:58.872Z,33.33
2022-08-17T14:12:02.533Z,32.73
2022-08-17T14:17:03.588Z,32.54
2022-08-17T14:22:05.106Z,32.63
2022-08-17T14:27:09.037Z,32.66
2022-08-17T14:32:19.482Z,33.00
2022-08-17T14:37:21.785Z,33.30
2022-08-17T14:42:26.226Z,33.46
2022-08-17T14:47:27.514Z,33.20
2022-08-17T14:52:28.151Z,33.28
2022-08-17T14:57:33.691Z,33.09
2022-08-17T15:02:46.424Z,33.28
2022-08-17T15:07:47.060Z,33.53
2022-08-17T15:12:49.663Z,33.22
2022-08-17T15:17:51.190Z,33.35
2022-08-17T15:22:55.024Z,33.47
2022-08-17T15:27:57.522Z,33.44
2022-08-17T15:32:59.598Z,33.50
2022-08-17T15:38:10.541Z,33.43
2022-08-17T15:43:15.915Z,33.70
2022-08-17T15:48:18.617Z,33.62
2022-08-17T15:53:19.220Z,33.90
2022-08-17T15:58:21.144Z,33.97
2022-08-17T16:04:03.804Z,34.17
2022-08-17T16:08:56.053Z,34.24
2022-08-17T16:13:57.966Z,33.96
2022-08-17T16:18:58.890Z,34.03
2022-08-17T16:24:02.146Z,34.07
2022-08-17T16:29:07.653Z,33.94
2022-08-17T16:34:17.266Z,34.07
2022-08-17T16:39:19.222Z,34.32
2022-08-17T16:44:22.439Z,33.52
2022-08-17T16:49:35.841Z,32.54
2022-08-17T16:54:38.577Z,31.86
2022-08-17T16:59:44.936Z,31.43
2022-08-17T17:04:53.164Z,31.06
2022-08-17T17:09:55.416Z,30.88
2022-08-17T17:14:59.269Z,30.70
2022-08-17T17:20:07.716Z,30.43
2022-08-17T17:25:13.680Z,30.13
2022-08-17T17:30:20.649Z,29.74
2022-08-17T17:35:25.226Z,29.43
2022-08-17T17:40:32.866Z,29.18
2022-08-17T17:45:42.197Z,28.94
2022-08-17T17:50:48.958Z,28.77
2022-08-17T17:55:59.797Z,28.47
2022-08-17T18:01:23.398Z,28.15
2022-08-17T18:06:36.262Z,27.83
2022-08-17T18:12:03.338Z,27.54
2022-08-17T18:17:07.533Z,27.22
2022-08-17T18:22:14.442Z,26.95
2022-08-17T18:27:31.766Z,26.71
2022-08-17T18:32:36.969Z,26.53
2022-08-17T18:37:42.674Z,26.45
2022-08-17T18:42:45.772Z,26.28
2022-08-17T18:47:54.279Z,26.06
2022-08-17T18:52:56.108Z,25.92
2022-08-17T18:57:58.773Z,25.76
2022-08-17T19:03:03.077Z,25.60
2022-08-17T19:08:24.811Z,25.46
2022-08-17T19:13:29.405Z,25.32
2022-08-17T19:18:38.505Z,25.18
2022-08-17T19:23:53.822Z,25.04
2022-08-17T19:29:00.873Z,24.92
2022-08-17T19:34:03.980Z,24.96
2022-08-17T19:39:12.293Z,24.78
2022-08-17T19:44:26.962Z,24.67
2022-08-17T19:49:41.192Z,24.51
2022-08-17T19:54:47.951Z,24.43
2022-08-17T19:59:54.624Z,24.45
2022-08-17T20:05:01.002Z,24.23
2022-08-17T20:10:06.520Z,24.06
2022-08-17T20:15:11.140Z,24.03
2022-08-17T20:20:25.954Z,23.93
2022-08-17T20:25:36.003Z,23.79
2022-08-17T20:30:39.867Z,23.66
2022-08-17T20:36:02.856Z,23.68
2022-08-17T20:41:14.804Z,23.69
2022-08-17T20:46:35.060Z,23.62
2022-08-17T20:51:43.073Z,23.52
2022-08-17T20:57:02.415Z,23.45
2022-08-17T21:02:18.621Z,23.52
2022-08-17T21:07:30.047Z,23.59
2022-08-17T21:12:43.059Z,23.49
2022-08-17T21:17:51.385Z,23.43
2022-08-17T21:23:06.143Z,23.15
2022-08-17T21:28:14.751Z,23.04
2022-08-17T21:33:23.773Z,22.99
2022-08-17T21:38:37.849Z,22.86
2022-08-17T21:43:48.448Z,22.74
2022-08-17T21:48:49.307Z,22.49
2022-08-17T21:54:00.331Z,22.43
2022-08-17T21:59:04.278Z,22.46
2022-08-17T22:04:16.139Z,22.54
2022-08-17T22:09:22.001Z,22.56
2022-08-17T22:14:26.429Z,22.58
2022-08-17T22:19:51.410Z,22.50
2022-08-17T22:24:57.583Z,22.40
2022-08-17T22:29:59.813Z,22.46
2022-08-17T22:35:28.413Z,22.29
2022-08-17T22:40:33.014Z,22.29
2022-08-17T22:45:43.193Z,22.16
2022-08-17T22:50:43.844Z,22.03
2022-08-17T22:56:12.550Z,22.06
2022-08-17T23:01:32.449Z,21.97
2022-08-17T23:06:34.701Z,21.81
2022-08-17T23:11:49.547Z,21.65
2022-08-17T23:16:51.102Z,21.64
2022-08-17T23:21:55.202Z,21.51
2022-08-17T23:26:58.964Z,21.42
2022-08-17T23:32:04.657Z,21.39
2022-08-17T23:37:05.286Z,21.34
2022-08-17T23:42:10.185Z,21.24
2022-08-17T23:47:10.916Z,21.04
2022-08-17T23:52:16.500Z,21.07
2022-08-17T23:57:33.662Z,21.01
